KEWN/EWN METAR and TAF weather

Enter ICAO airport designator
Station Type Date Time Source
KEWN METAR 2020/09/18 15:54 UTC NOAA

KEWN 181554Z 01008KT 2SM -RA BR SCT006 BKN013 OVC021 22/22 A2983 RMK AO2 RAB19 SLP102 P0002 T02170217


Station Type Date Time Source
KEWN Decoded METAR 2020/09/18 15:54 UTC NOAA

New Bern, Craven County Regional Airport, NC, United States (KEWN) 35-04-03N 077-02-50W 3M
Sep 18, 2020 - 11:54 AM EDT / 2020.09.18 1554 UTC
Wind: from the N (010 degrees) at 9 MPH (8 KT):0
Visibility: 2 mile(s):0
Sky conditions: overcast
Weather: light rain; mist
Precipitation last hour: 0.02 inches
Temperature: 71.1 F (21.7 C)
Dew Point: 71.1 F (21.7 C)
Relative Humidity: 100%
Pressure (altimeter): 29.83 in. Hg (1010 hPa)
ob: KEWN 181554Z 01008KT 2SM -RA BR SCT006 BKN013 OVC021 22/22 A2983 RMK AO2 RAB19 SLP102 P0002 T02170217
cycle: 16

Station Type Date Time Source
KEWN TAF 2020/09/18 13:21 UTC NOAA

TAF
AMD KEWN 181318Z 1813/1912 35011KT P6SM VCSH BKN006
FM181700 36010G15KT 6SM BR VCSH BKN010
FM190000 01011G16KT P6SM OVC025
FM190600 01011G19KT P6SM BKN050

Example: see airport list